createdAt,value
2024-02-08T00:02:02.642Z,20.58
2024-02-08T00:04:29.286Z,19.15
2024-02-08T00:06:55.968Z,22.02
2024-02-08T00:09:22.530Z,20.20
2024-02-08T00:11:48.998Z,20.70
2024-02-08T00:14:15.462Z,19.65
2024-02-08T00:16:41.910Z,19.10
2024-02-08T00:19:08.415Z,22.52
2024-02-08T00:21:36.595Z,20.40
2024-02-08T00:24:03.294Z,19.85
2024-02-08T00:26:29.883Z,22.15
2024-02-08T00:28:56.368Z,22.25
2024-02-08T00:31:22.915Z,22.08
2024-02-08T00:33:50.768Z,21.42
2024-02-08T00:36:17.316Z,21.30
2024-02-08T00:38:46.481Z,23.10
2024-02-08T00:41:13.013Z,22.08
2024-02-08T00:43:40.252Z,21.90
2024-02-08T00:46:07.549Z,23.00
2024-02-08T00:48:33.925Z,24.17
2024-02-08T00:51:00.492Z,24.73
2024-02-08T00:53:26.929Z,23.33
2024-02-08T00:55:53.453Z,23.73
2024-02-08T00:58:19.985Z,21.65
2024-02-08T01:00:48.735Z,24.85
2024-02-08T01:03:15.491Z,24.05
2024-02-08T01:05:43.353Z,23.13
2024-02-08T01:08:11.886Z,24.17
2024-02-08T01:10:38.490Z,23.65
2024-02-08T01:13:05.667Z,23.65
2024-02-08T01:15:32.084Z,22.60
2024-02-08T01:17:59.796Z,22.20
2024-02-08T01:20:29.395Z,22.58
2024-02-08T01:22:56.166Z,21.27
2024-02-08T01:25:22.741Z,21.33
2024-02-08T01:27:49.259Z,21.67
2024-02-08T01:30:15.740Z,21.15
2024-02-08T01:32:42.406Z,24.17
2024-02-08T01:35:12.241Z,22.17
2024-02-08T01:37:39.969Z,22.48
2024-02-08T01:40:17.663Z,24.17
2024-02-08T01:42:44.912Z,24.65
2024-02-08T01:45:31.573Z,23.35
2024-02-08T01:48:03.626Z,22.77
2024-02-08T01:50:33.928Z,22.27
2024-02-08T01:53:00.831Z,22.13
2024-02-08T01:55:34.015Z,22.00
2024-02-08T01:58:04.917Z,23.80
2024-02-08T02:00:36.394Z,21.92
2024-02-08T02:03:04.697Z,23.25
2024-02-08T02:05:31.245Z,22.52
2024-02-08T02:07:58.756Z,23.20
2024-02-08T02:10:31.016Z,23.63
2024-02-08T02:13:04.383Z,25.05
2024-02-08T02:15:32.950Z,24.70
2024-02-08T02:18:05.074Z,23.85
2024-02-08T02:20:31.589Z,23.65
2024-02-08T02:22:59.894Z,22.60
2024-02-08T02:25:29.778Z,23.17
2024-02-08T02:27:59.745Z,22.52
2024-02-08T02:30:29.633Z,22.27
2024-02-08T02:33:01.031Z,23.00
2024-02-08T02:35:29.834Z,24.33
2024-02-08T02:37:59.966Z,24.90
2024-02-08T02:40:26.520Z,24.50
2024-02-08T02:42:54.147Z,23.38
2024-02-08T02:45:25.131Z,24.15
2024-02-08T02:47:54.691Z,23.77
2024-02-08T02:50:22.614Z,24.20
2024-02-08T02:52:50.455Z,24.23
2024-02-08T02:55:21.308Z,27.55
2024-02-08T02:57:48.433Z,27.33
2024-02-08T03:00:34.866Z,28.83
2024-02-08T03:03:09.994Z,29.10
2024-02-08T03:05:40.882Z,29.20
2024-02-08T03:08:08.077Z,29.15
2024-02-08T03:10:36.045Z,30.50
2024-02-08T03:13:02.560Z,30.60
2024-02-08T03:15:28.992Z,30.70
2024-02-08T03:17:55.516Z,31.33
2024-02-08T03:20:25.549Z,32.88
2024-02-08T03:22:52.487Z,32.30
2024-02-08T03:25:22.750Z,31.80
2024-02-08T03:27:55.310Z,33.20
2024-02-08T03:30:32.055Z,32.53
2024-02-08T03:32:59.957Z,33.05
2024-02-08T03:35:30.975Z,31.80
2024-02-08T03:38:01.818Z,33.30
2024-02-08T03:40:33.611Z,31.80
2024-02-08T03:43:01.489Z,31.85
2024-02-08T03:45:31.456Z,32.28
2024-02-08T03:48:00.210Z,31.80
2024-02-08T03:50:35.071Z,32.10
2024-02-08T03:53:05.534Z,35.53
2024-02-08T03:55:33.019Z,33.47
2024-02-08T03:58:01.646Z,35.13
2024-02-08T04:00:31.440Z,34.80
2024-02-08T04:03:04.958Z,35.35
2024-02-08T04:05:50.228Z,34.88
2024-02-08T04:08:28.679Z,31.15
2024-02-08T04:10:55.787Z,33.88
2024-02-08T04:13:41.340Z,34.08
2024-02-08T04:16:26.168Z,32.38
2024-02-08T04:19:11.419Z,34.60
2024-02-08T04:21:56.200Z,34.05
2024-02-08T04:24:41.437Z,37.78
2024-02-08T04:27:28.742Z,37.10
2024-02-08T04:30:13.546Z,38.08
2024-02-08T04:33:08.955Z,37.88
2024-02-08T04:35:53.790Z,35.83
2024-02-08T04:38:38.583Z,36.90
2024-02-08T04:41:23.337Z,35.33
2024-02-08T04:44:08.414Z,36.28
2024-02-08T04:46:53.255Z,35.72
2024-02-08T04:49:38.584Z,35.88
2024-02-08T04:52:24.196Z,34.95
2024-02-08T04:54:50.670Z,34.85
2024-02-08T04:57:17.047Z,35.40
2024-02-08T04:59:47.570Z,34.28
2024-02-08T05:02:15.226Z,35.40
2024-02-08T05:04:43.101Z,36.08
2024-02-08T05:07:09.812Z,38.08
2024-02-08T05:09:36.526Z,35.60
2024-02-08T05:12:06.845Z,36.83
2024-02-08T05:14:36.241Z,36.22
2024-02-08T05:17:03.268Z,33.40
2024-02-08T05:19:30.049Z,37.22
2024-02-08T05:22:00.998Z,39.45
2024-02-08T05:24:32.927Z,37.38
2024-02-08T05:27:03.224Z,34.63
2024-02-08T05:29:30.221Z,38.35
2024-02-08T05:31:59.340Z,40.10
2024-02-08T05:34:27.256Z,45.03
2024-02-08T05:36:59.393Z,38.88
2024-02-08T05:39:27.572Z,39.05
2024-02-08T05:41:59.605Z,41.33
2024-02-08T05:44:32.440Z,39.97
2024-02-08T05:47:12.078Z,48.58
2024-02-08T05:49:52.421Z,44.28
2024-02-08T05:52:29.804Z,42.58
2024-02-08T05:54:56.413Z,47.55
2024-02-08T05:57:25.835Z,51.08
2024-02-08T06:00:03.679Z,51.47
2024-02-08T06:02:31.578Z,45.13
2024-02-08T06:05:05.988Z,48.05
2024-02-08T06:07:35.631Z,45.58
2024-02-08T06:10:16.978Z,43.70
2024-02-08T06:12:53.749Z,49.42
2024-02-08T06:15:25.564Z,41.03
2024-02-08T06:17:58.971Z,42.65
2024-02-08T06:20:35.024Z,43.35
2024-02-08T06:23:18.078Z,40.97
2024-02-08T06:26:02.643Z,41.38
2024-02-08T06:28:30.399Z,37.83
2024-02-08T06:31:00.191Z,41.60
2024-02-08T06:33:27.189Z,43.08
2024-02-08T06:35:57.746Z,37.83
2024-02-08T06:38:42.691Z,40.95
2024-02-08T06:41:24.866Z,45.33
2024-02-08T06:43:58.771Z,42.55
2024-02-08T06:46:48.828Z,47.22
2024-02-08T06:49:37.238Z,37.42
2024-02-08T06:52:22.605Z,37.38
2024-02-08T06:55:07.523Z,36.72
2024-02-08T06:57:52.571Z,35.17
2024-02-08T07:00:37.694Z,35.05
2024-02-08T07:03:23.447Z,34.85
2024-02-08T07:06:08.168Z,33.88
2024-02-08T07:08:53.041Z,33.40
2024-02-08T07:11:37.792Z,32.70
2024-02-08T07:14:22.445Z,32.95
2024-02-08T07:17:07.266Z,33.42
2024-02-08T07:19:52.445Z,32.72
2024-02-08T07:22:37.251Z,34.10
2024-02-08T07:25:22.637Z,34.47
2024-02-08T07:28:08.949Z,36.03
2024-02-08T07:30:56.051Z,32.22
2024-02-08T07:33:41.805Z,34.10
2024-02-08T07:36:30.432Z,32.40
2024-02-08T07:39:17.157Z,33.75
2024-02-08T07:41:54.844Z,35.03
2024-02-08T07:44:24.242Z,38.03
2024-02-08T07:46:51.317Z,37.15
2024-02-08T07:49:18.406Z,36.15
2024-02-08T07:51:51.626Z,39.20
2024-02-08T07:54:22.805Z,34.38
2024-02-08T07:56:49.378Z,35.85
2024-02-08T07:59:27.685Z,37.13
2024-02-08T08:01:58.890Z,36.05
2024-02-08T08:04:52.834Z,40.53
2024-02-08T08:07:26.617Z,36.92
2024-02-08T08:10:10.135Z,38.05
2024-02-08T08:12:37.204Z,37.17
2024-02-08T08:15:04.134Z,35.55
2024-02-08T08:17:31.066Z,36.00
2024-02-08T08:20:05.162Z,34.63
2024-02-08T08:22:35.540Z,35.38
2024-02-08T08:25:22.152Z,35.80
2024-02-08T08:27:48.768Z,35.53
2024-02-08T08:30:31.489Z,36.13
2024-02-08T08:33:03.057Z,34.42
2024-02-08T08:35:46.901Z,37.10
2024-02-08T08:38:20.425Z,40.40
2024-02-08T08:40:50.951Z,37.92
2024-02-08T08:43:23.685Z,40.55
2024-02-08T08:45:51.775Z,39.80
2024-02-08T08:48:22.984Z,39.17
2024-02-08T08:50:56.273Z,37.53
2024-02-08T08:53:29.369Z,43.25
2024-02-08T08:55:56.736Z,40.78
2024-02-08T08:58:28.897Z,33.72
2024-02-08T09:01:12.733Z,33.83
2024-02-08T09:03:41.061Z,31.90
2024-02-08T09:06:13.819Z,30.90
2024-02-08T09:08:47.220Z,32.75
2024-02-08T09:11:20.394Z,31.45
2024-02-08T09:13:52.740Z,30.50
2024-02-08T09:16:23.295Z,29.17
2024-02-08T09:19:03.716Z,32.33
2024-02-08T09:21:36.451Z,30.63
2024-02-08T09:24:07.925Z,29.30
2024-02-08T09:26:53.413Z,27.48
2024-02-08T09:29:28.628Z,28.05
2024-02-08T09:31:59.600Z,28.33
2024-02-08T09:34:42.304Z,26.35
2024-02-08T09:37:10.416Z,25.60
2024-02-08T09:39:56.639Z,26.80
2024-02-08T09:42:30.716Z,25.60
2024-02-08T09:47:56.192Z,20.67
2024-02-08T09:50:37.180Z,24.05
2024-02-08T09:53:20.470Z,23.88
2024-02-08T09:55:56.836Z,25.08
2024-02-08T09:58:43.286Z,25.08
2024-02-08T10:01:23.990Z,24.23
2024-02-08T10:04:06.094Z,24.20
2024-02-08T10:06:40.446Z,25.38
2024-02-08T10:11:59.358Z,23.08
2024-02-08T10:14:27.113Z,25.48
2024-02-08T10:17:01.931Z,25.50
2024-02-08T10:19:48.757Z,27.15
2024-02-08T10:22:28.253Z,27.25
2024-02-08T10:24:54.997Z,27.38
2024-02-08T10:27:22.603Z,27.58
2024-02-08T10:29:52.076Z,26.95
2024-02-08T10:32:19.929Z,26.70
2024-02-08T10:34:47.530Z,27.50
2024-02-08T10:37:34.537Z,25.52
2024-02-08T10:40:01.938Z,26.35
2024-02-08T10:42:39.336Z,27.05
2024-02-08T10:45:06.693Z,25.73
2024-02-08T10:47:42.317Z,27.08
2024-02-08T10:50:21.123Z,28.58
2024-02-08T10:52:50.404Z,27.98
2024-02-08T10:55:19.835Z,27.00
2024-02-08T10:58:22.281Z,26.88
2024-02-08T11:00:49.103Z,27.10
2024-02-08T11:03:29.401Z,28.80
2024-02-08T11:06:02.824Z,25.85
2024-02-08T11:08:37.944Z,26.20
2024-02-08T11:11:10.916Z,27.27
2024-02-08T11:13:43.579Z,26.75
2024-02-08T11:16:21.632Z,25.75
2024-02-08T11:18:53.941Z,26.00
2024-02-08T11:21:44.874Z,25.45
2024-02-08T11:24:14.446Z,24.15
2024-02-08T11:26:55.852Z,26.35
2024-02-08T11:29:25.336Z,24.67
2024-02-08T11:31:51.843Z,25.67
2024-02-08T11:34:25.514Z,26.63
2024-02-08T11:39:30.872Z,27.30
2024-02-08T11:42:06.606Z,23.40
2024-02-08T11:44:40.732Z,23.95
2024-02-08T11:47:24.770Z,23.83
2024-02-08T11:50:02.333Z,22.95
2024-02-08T11:52:29.983Z,21.80
2024-02-08T11:55:02.918Z,21.08
2024-02-08T11:57:38.366Z,21.20
2024-02-08T12:00:16.487Z,22.90
2024-02-08T12:02:53.379Z,21.63
2024-02-08T12:05:22.281Z,21.73
2024-02-08T12:07:49.695Z,23.15
2024-02-08T12:10:23.211Z,22.73
2024-02-08T12:12:55.877Z,21.05
2024-02-08T12:15:22.835Z,21.83
2024-02-08T12:17:54.071Z,22.08
2024-02-08T12:20:20.735Z,22.33
2024-02-08T12:22:54.673Z,22.30
2024-02-08T12:25:21.510Z,21.73
2024-02-08T12:27:58.750Z,24.75
2024-02-08T12:30:34.712Z,21.33
2024-02-08T12:33:09.772Z,22.55
2024-02-08T12:35:41.484Z,21.65
2024-02-08T12:38:10.254Z,22.73
2024-02-08T12:40:37.039Z,21.98
2024-02-08T12:43:09.106Z,21.60
2024-02-08T12:45:36.498Z,21.95
2024-02-08T12:48:07.818Z,22.75
2024-02-08T12:50:36.348Z,24.27
2024-02-08T12:53:06.944Z,23.52
2024-02-08T12:55:33.455Z,24.15
2024-02-08T12:58:06.653Z,24.20
2024-02-08T13:00:36.757Z,23.67
2024-02-08T13:03:07.689Z,23.70
2024-02-08T13:05:39.439Z,24.75
2024-02-08T13:08:09.561Z,23.00
2024-02-08T13:10:39.676Z,23.90
2024-02-08T13:13:11.295Z,23.73
2024-02-08T13:15:38.399Z,23.02
2024-02-08T13:18:10.921Z,24.20
2024-02-08T13:20:40.822Z,24.20
2024-02-08T13:23:10.710Z,22.00
2024-02-08T13:25:37.677Z,23.70
2024-02-08T13:28:04.698Z,22.52
2024-02-08T13:30:31.681Z,23.17
2024-02-08T13:32:59.706Z,26.20
2024-02-08T13:35:27.441Z,23.98
2024-02-08T13:37:55.860Z,23.63
2024-02-08T13:40:24.565Z,24.33
2024-02-08T13:42:57.218Z,25.60
2024-02-08T13:45:27.042Z,22.98
2024-02-08T13:47:59.226Z,23.40
2024-02-08T13:50:31.501Z,24.38
2024-02-08T13:53:00.193Z,24.65
2024-02-08T13:55:45.477Z,24.88
2024-02-08T13:58:19.474Z,24.77
2024-02-08T14:00:46.061Z,25.40
2024-02-08T14:03:15.898Z,24.48
2024-02-08T14:05:51.901Z,24.42
2024-02-08T14:08:19.569Z,25.38
2024-02-08T14:10:46.483Z,24.05
2024-02-08T14:13:17.758Z,25.60
2024-02-08T14:15:49.565Z,26.23
2024-02-08T14:18:28.699Z,24.85
2024-02-08T14:21:02.382Z,25.30
2024-02-08T14:23:38.371Z,24.52
2024-02-08T14:26:09.360Z,26.67
2024-02-08T14:28:44.095Z,25.63
2024-02-08T14:31:11.430Z,24.05
2024-02-08T14:33:42.464Z,24.92
2024-02-08T14:36:11.384Z,23.73
2024-02-08T14:38:46.887Z,25.67
2024-02-08T14:41:27.793Z,24.77
2024-02-08T14:43:56.077Z,25.23
2024-02-08T14:46:27.283Z,25.55
2024-02-08T14:48:55.157Z,24.20
2024-02-08T14:51:24.788Z,26.83
2024-02-08T14:53:55.135Z,25.10
2024-02-08T14:56:22.229Z,26.52
2024-02-08T14:59:08.777Z,25.52
2024-02-08T15:01:43.116Z,24.30
2024-02-08T15:04:23.187Z,28.42
2024-02-08T15:07:06.925Z,25.77
2024-02-08T15:09:37.510Z,26.25
2024-02-08T15:12:05.751Z,25.90
2024-02-08T15:14:39.343Z,25.90
2024-02-08T15:17:11.852Z,27.02
2024-02-08T15:20:38.759Z,28.10
2024-02-08T15:23:41.695Z,28.35
2024-02-08T15:27:07.020Z,27.75
2024-02-08T15:29:44.280Z,28.35
2024-02-08T15:32:20.026Z,28.30
2024-02-08T15:35:00.938Z,28.83
2024-02-08T15:37:28.097Z,28.13
2024-02-08T15:39:54.953Z,29.00
2024-02-08T15:42:33.356Z,30.88
2024-02-08T15:45:00.611Z,32.63
2024-02-08T15:47:30.152Z,28.48
2024-02-08T15:49:57.640Z,32.00
2024-02-08T15:52:35.775Z,30.38
2024-02-08T15:55:16.381Z,30.50
2024-02-08T15:57:52.695Z,31.63
2024-02-08T16:00:34.810Z,34.22
2024-02-08T16:03:04.022Z,32.55
2024-02-08T16:05:36.162Z,35.25
2024-02-08T16:08:07.357Z,34.55
2024-02-08T16:10:34.030Z,34.67
2024-02-08T16:13:07.503Z,34.40
2024-02-08T16:15:53.956Z,34.53
2024-02-08T16:18:27.483Z,32.33
2024-02-08T16:23:45.429Z,31.42
2024-02-08T16:26:14.657Z,32.30
2024-02-08T16:28:51.127Z,33.50
2024-02-08T16:31:18.077Z,34.13
2024-02-08T16:33:54.434Z,34.67
2024-02-08T16:36:35.239Z,36.80
2024-02-08T16:39:09.364Z,36.95
2024-02-08T16:41:50.010Z,38.05
2024-02-08T16:44:23.694Z,36.35
2024-02-08T16:46:56.785Z,37.80
2024-02-08T16:49:32.035Z,36.83
2024-02-08T16:52:05.400Z,40.20
2024-02-08T16:54:35.274Z,43.75
2024-02-08T16:57:07.754Z,54.80
2024-02-08T16:59:49.484Z,155.57
2024-02-08T17:02:40.368Z,276.80
2024-02-08T17:05:13.527Z,262.80
2024-02-08T17:07:46.345Z,417.73
2024-02-08T17:10:37.447Z,553.90
2024-02-08T17:13:17.397Z,499.52
2024-02-08T17:16:00.785Z,696.78
2024-02-08T17:18:35.179Z,686.58
2024-02-08T17:21:28.296Z,698.53
2024-02-08T17:24:02.925Z,750.47
2024-02-08T17:26:37.701Z,717.00
2024-02-08T17:29:33.383Z,993.53
2024-02-08T17:31:59.763Z,695.97
2024-02-08T17:34:28.384Z,755.50
2024-02-08T17:36:55.938Z,782.97
2024-02-08T17:39:26.307Z,691.22
2024-02-08T17:41:53.455Z,670.83
2024-02-08T17:44:31.024Z,907.28
2024-02-08T17:47:01.206Z,461.42
2024-02-08T17:49:27.981Z,384.83
2024-02-08T17:51:57.761Z,352.65
2024-02-08T17:54:32.882Z,326.73
2024-02-08T17:57:02.996Z,288.77
2024-02-08T17:59:30.517Z,181.18
2024-02-08T18:02:15.749Z,230.23
2024-02-08T18:07:14.136Z,592.72
2024-02-08T18:09:45.246Z,181.75
2024-02-08T18:12:34.955Z,224.35
2024-02-08T18:15:14.073Z,81.78
2024-02-08T18:17:46.437Z,88.35
2024-02-08T18:20:16.845Z,88.93
2024-02-08T18:22:49.752Z,100.13
2024-02-08T18:25:29.882Z,193.52
2024-02-08T18:28:00.964Z,125.68
2024-02-08T18:30:30.023Z,82.85
2024-02-08T18:33:05.101Z,87.90
2024-02-08T18:35:36.368Z,105.75
2024-02-08T18:38:09.565Z,193.25
2024-02-08T18:40:37.760Z,92.22
2024-02-08T18:43:05.279Z,88.70
2024-02-08T18:45:35.760Z,107.60
2024-02-08T18:48:02.389Z,113.45
2024-02-08T18:50:31.961Z,93.05
2024-02-08T18:53:07.591Z,89.97
2024-02-08T18:55:40.403Z,86.18
2024-02-08T18:58:10.251Z,134.07
2024-02-08T19:00:38.361Z,123.43
2024-02-08T19:03:08.844Z,171.27
2024-02-08T19:05:43.673Z,155.95
2024-02-08T19:08:19.627Z,159.50
2024-02-08T19:10:53.834Z,160.48
2024-02-08T19:13:28.686Z,165.40
2024-02-08T19:16:09.252Z,169.50
2024-02-08T19:18:45.368Z,164.65
2024-02-08T19:21:16.344Z,189.23
2024-02-08T19:23:45.753Z,201.45
2024-02-08T19:26:22.865Z,273.48
2024-02-08T19:28:50.118Z,211.00
2024-02-08T19:31:16.622Z,257.58
2024-02-08T19:33:46.456Z,244.73
2024-02-08T19:36:23.270Z,268.95
2024-02-08T19:38:56.649Z,258.88
2024-02-08T19:41:24.479Z,228.97
2024-02-08T19:43:51.192Z,299.92
2024-02-08T19:46:20.750Z,278.63
2024-02-08T19:48:53.529Z,481.67
2024-02-08T19:51:26.084Z,265.52
2024-02-08T19:53:56.091Z,220.70
2024-02-08T19:56:23.861Z,183.30
2024-02-08T19:58:53.642Z,212.85
2024-02-08T20:01:24.265Z,138.70
2024-02-08T20:03:53.481Z,123.72
2024-02-08T20:06:22.499Z,112.97
2024-02-08T20:08:55.302Z,123.30
2024-02-08T20:11:24.738Z,119.50
2024-02-08T20:14:00.192Z,117.50
2024-02-08T20:16:36.708Z,110.10
2024-02-08T20:19:06.695Z,88.47
2024-02-08T20:21:33.196Z,92.10
2024-02-08T20:24:01.400Z,106.55
2024-02-08T20:26:30.077Z,109.93
2024-02-08T20:28:56.521Z,103.18
2024-02-08T20:31:25.601Z,101.50
2024-02-08T20:33:55.533Z,101.70
2024-02-08T20:36:22.743Z,88.78
2024-02-08T20:38:54.504Z,98.32
2024-02-08T20:41:25.127Z,111.70
2024-02-08T20:44:08.441Z,98.43
2024-02-08T20:46:36.338Z,81.78
2024-02-08T20:49:04.700Z,84.03
2024-02-08T20:51:34.184Z,87.65
2024-02-08T20:54:06.183Z,92.75
2024-02-08T20:56:37.687Z,84.30
2024-02-08T20:59:11.771Z,93.28
2024-02-08T21:01:38.274Z,84.30
2024-02-08T21:04:08.692Z,97.00
2024-02-08T21:06:35.573Z,95.97
2024-02-08T21:09:08.109Z,100.80
2024-02-08T21:11:37.690Z,103.60
2024-02-08T21:14:05.078Z,100.95
2024-02-08T21:16:31.762Z,107.47
2024-02-08T21:18:58.352Z,100.10
2024-02-08T21:21:25.022Z,108.55
2024-02-08T21:23:55.317Z,105.65
2024-02-08T21:26:22.971Z,99.97
2024-02-08T21:28:52.261Z,106.97
2024-02-08T21:31:20.048Z,96.65
2024-02-08T21:33:48.925Z,96.28
2024-02-08T21:36:16.723Z,100.63
2024-02-08T21:38:50.197Z,86.68
2024-02-08T21:41:17.183Z,83.75
2024-02-08T21:43:44.539Z,85.35
2024-02-08T21:46:14.324Z,80.20
2024-02-08T21:48:45.126Z,80.43
2024-02-08T21:51:13.318Z,85.00
2024-02-08T21:53:39.932Z,79.85
2024-02-08T21:56:19.683Z,88.93
2024-02-08T21:58:47.506Z,88.38
2024-02-08T22:03:59.409Z,86.25
2024-02-08T22:06:26.363Z,97.75
2024-02-08T22:08:53.106Z,92.43
2024-02-08T22:11:19.698Z,94.53
2024-02-08T22:13:47.206Z,90.82
2024-02-08T22:16:17.030Z,87.28
2024-02-08T22:18:47.468Z,83.85
2024-02-08T22:21:18.175Z,82.30
2024-02-08T22:23:45.537Z,87.25
2024-02-08T22:26:13.925Z,85.18
2024-02-08T22:28:44.003Z,86.32
2024-02-08T22:31:12.425Z,78.05
2024-02-08T22:33:39.384Z,84.28
2024-02-08T22:36:07.919Z,82.60
2024-02-08T22:38:34.565Z,82.75
2024-02-08T22:41:01.668Z,84.53
2024-02-08T22:43:28.539Z,80.35
2024-02-08T22:45:56.102Z,83.65
2024-02-08T22:48:23.306Z,81.93
2024-02-08T22:50:52.455Z,90.78
2024-02-08T22:53:21.085Z,109.15
2024-02-08T22:55:52.093Z,92.32
2024-02-08T22:58:20.066Z,88.93
2024-02-08T23:00:50.867Z,92.45
2024-02-08T23:03:18.385Z,84.28
2024-02-08T23:05:46.959Z,87.22
2024-02-08T23:08:17.060Z,79.82
2024-02-08T23:10:43.845Z,82.03
2024-02-08T23:13:12.070Z,81.15
2024-02-08T23:15:45.759Z,75.97
2024-02-08T23:18:15.853Z,71.57
2024-02-08T23:20:44.724Z,67.35
2024-02-08T23:23:12.212Z,67.95
2024-02-08T23:25:40.911Z,65.97
2024-02-08T23:28:08.156Z,66.72
2024-02-08T23:30:34.861Z,67.50
2024-02-08T23:33:04.729Z,68.40
2024-02-08T23:35:31.824Z,67.30
2024-02-08T23:38:01.482Z,67.53
2024-02-08T23:40:29.497Z,69.07
2024-02-08T23:42:57.818Z,67.32
2024-02-08T23:45:29.265Z,70.68
2024-02-08T23:47:56.236Z,72.00
2024-02-08T23:50:25.236Z,75.75
2024-02-08T23:52:53.374Z,72.60
2024-02-08T23:55:24.451Z,73.30
2024-02-08T23:57:51.012Z,78.22
